sensor_id;sensor_type;location;lat;lon;timestamp;P1;durP1;ratioP1;P2;durP2;ratioP2
24801;SDS011;12898;50.520;12.152;2022-07-23T00:01:21;7.43;;;4.65;;
24801;SDS011;12898;50.520;12.152;2022-07-23T00:03:47;7.28;;;4.93;;
24801;SDS011;12898;50.520;12.152;2022-07-23T00:06:13;7.22;;;5.00;;
24801;SDS011;12898;50.520;12.152;2022-07-23T00:08:39;8.18;;;4.90;;
24801;SDS011;12898;50.520;12.152;2022-07-23T00:11:05;8.68;;;5.45;;
24801;SDS011;12898;50.520;12.152;2022-07-23T00:13:30;8.05;;;5.35;;
24801;SDS011;12898;50.520;12.152;2022-07-23T00:15:56;8.27;;;5.18;;
24801;SDS011;12898;50.520;12.152;2022-07-23T00:18:22;9.65;;;5.68;;
24801;SDS011;12898;50.520;12.152;2022-07-23T00:20:48;8.23;;;4.95;;
24801;SDS011;12898;50.520;12.152;2022-07-23T00:23:13;8.23;;;5.07;;
24801;SDS011;12898;50.520;12.152;2022-07-23T00:25:40;10.68;;;5.65;;
24801;SDS011;12898;50.520;12.152;2022-07-23T00:28:05;8.63;;;5.97;;
24801;SDS011;12898;50.520;12.152;2022-07-23T00:30:31;7.93;;;5.70;;
24801;SDS011;12898;50.520;12.152;2022-07-23T00:33:00;7.50;;;5.35;;
24801;SDS011;12898;50.520;12.152;2022-07-23T00:35:31;9.43;;;5.70;;
24801;SDS011;12898;50.520;12.152;2022-07-23T00:38:02;9.60;;;5.70;;
24801;SDS011;12898;50.520;12.152;2022-07-23T00:40:30;8.80;;;5.78;;
24801;SDS011;12898;50.520;12.152;2022-07-23T00:42:55;10.13;;;5.60;;
24801;SDS011;12898;50.520;12.152;2022-07-23T00:45:22;9.27;;;6.03;;
24801;SDS011;12898;50.520;12.152;2022-07-23T00:47:47;8.20;;;5.80;;
24801;SDS011;12898;50.520;12.152;2022-07-23T00:50:13;9.80;;;6.05;;
24801;SDS011;12898;50.520;12.152;2022-07-23T00:52:39;8.20;;;5.82;;
24801;SDS011;12898;50.520;12.152;2022-07-23T00:55:06;8.43;;;6.18;;
24801;SDS011;12898;50.520;12.152;2022-07-23T00:57:33;8.52;;;6.05;;
24801;SDS011;12898;50.520;12.152;2022-07-23T00:59:59;8.73;;;6.15;;
24801;SDS011;12898;50.520;12.152;2022-07-23T01:02:26;8.73;;;6.35;;
24801;SDS011;12898;50.520;12.152;2022-07-23T01:04:52;9.77;;;6.50;;
24801;SDS011;12898;50.520;12.152;2022-07-23T01:07:19;8.55;;;6.13;;
24801;SDS011;12898;50.520;12.152;2022-07-23T01:09:45;9.05;;;5.95;;
24801;SDS011;12898;50.520;12.152;2022-07-23T01:12:11;8.93;;;6.53;;
24801;SDS011;12898;50.520;12.152;2022-07-23T01:14:37;9.70;;;6.60;;
24801;SDS011;12898;50.520;12.152;2022-07-23T01:17:03;10.30;;;6.65;;
24801;SDS011;12898;50.520;12.152;2022-07-23T01:19:29;11.55;;;7.50;;
24801;SDS011;12898;50.520;12.152;2022-07-23T01:21:55;10.75;;;6.60;;
24801;SDS011;12898;50.520;12.152;2022-07-23T01:24:23;9.45;;;6.85;;
24801;SDS011;12898;50.520;12.152;2022-07-23T01:26:49;9.40;;;6.93;;
24801;SDS011;12898;50.520;12.152;2022-07-23T01:29:15;9.57;;;7.03;;
24801;SDS011;12898;50.520;12.152;2022-07-23T01:31:42;9.50;;;7.20;;
24801;SDS011;12898;50.520;12.152;2022-07-23T01:34:09;10.52;;;7.05;;
24801;SDS011;12898;50.520;12.152;2022-07-23T01:36:35;10.82;;;7.47;;
24801;SDS011;12898;50.520;12.152;2022-07-23T01:39:05;11.52;;;7.15;;
24801;SDS011;12898;50.520;12.152;2022-07-23T01:41:32;11.32;;;7.10;;
24801;SDS011;12898;50.520;12.152;2022-07-23T01:43:59;13.02;;;7.97;;
24801;SDS011;12898;50.520;12.152;2022-07-23T01:46:24;12.73;;;7.60;;
24801;SDS011;12898;50.520;12.152;2022-07-23T01:48:50;10.60;;;6.43;;
24801;SDS011;12898;50.520;12.152;2022-07-23T01:51:16;9.90;;;7.03;;
24801;SDS011;12898;50.520;12.152;2022-07-23T01:53:42;10.63;;;7.05;;
24801;SDS011;12898;50.520;12.152;2022-07-23T01:56:08;10.27;;;6.85;;
24801;SDS011;12898;50.520;12.152;2022-07-23T01:58:33;11.38;;;6.95;;
24801;SDS011;12898;50.520;12.152;2022-07-23T02:00:59;10.43;;;7.10;;
24801;SDS011;12898;50.520;12.152;2022-07-23T02:03:25;9.93;;;7.00;;
24801;SDS011;12898;50.520;12.152;2022-07-23T02:05:52;10.18;;;7.38;;
24801;SDS011;12898;50.520;12.152;2022-07-23T02:08:18;10.13;;;7.75;;
24801;SDS011;12898;50.520;12.152;2022-07-23T02:10:43;10.25;;;7.50;;
24801;SDS011;12898;50.520;12.152;2022-07-23T02:13:10;12.20;;;7.57;;
24801;SDS011;12898;50.520;12.152;2022-07-23T02:15:36;10.60;;;7.55;;
24801;SDS011;12898;50.520;12.152;2022-07-23T02:18:02;9.98;;;7.05;;
24801;SDS011;12898;50.520;12.152;2022-07-23T02:20:28;11.45;;;6.93;;
24801;SDS011;12898;50.520;12.152;2022-07-23T02:22:54;10.93;;;7.82;;
24801;SDS011;12898;50.520;12.152;2022-07-23T02:25:19;10.30;;;7.50;;
24801;SDS011;12898;50.520;12.152;2022-07-23T02:27:45;10.77;;;7.22;;
24801;SDS011;12898;50.520;12.152;2022-07-23T02:30:11;12.50;;;7.15;;
24801;SDS011;12898;50.520;12.152;2022-07-23T02:32:37;10.80;;;7.82;;
24801;SDS011;12898;50.520;12.152;2022-07-23T02:35:04;9.75;;;6.97;;
24801;SDS011;12898;50.520;12.152;2022-07-23T02:37:31;14.00;;;8.77;;
24801;SDS011;12898;50.520;12.152;2022-07-23T02:39:57;13.75;;;8.88;;
24801;SDS011;12898;50.520;12.152;2022-07-23T02:42:23;11.77;;;7.88;;
24801;SDS011;12898;50.520;12.152;2022-07-23T02:44:49;12.65;;;8.30;;
24801;SDS011;12898;50.520;12.152;2022-07-23T02:47:16;11.82;;;7.07;;
24801;SDS011;12898;50.520;12.152;2022-07-23T02:49:42;12.00;;;8.23;;
24801;SDS011;12898;50.520;12.152;2022-07-23T02:52:07;11.80;;;8.02;;
24801;SDS011;12898;50.520;12.152;2022-07-23T02:54:35;13.40;;;8.43;;
24801;SDS011;12898;50.520;12.152;2022-07-23T02:57:02;11.80;;;7.80;;
24801;SDS011;12898;50.520;12.152;2022-07-23T02:59:28;11.73;;;8.20;;
24801;SDS011;12898;50.520;12.152;2022-07-23T03:01:54;11.90;;;8.18;;
24801;SDS011;12898;50.520;12.152;2022-07-23T03:04:19;11.90;;;8.43;;
24801;SDS011;12898;50.520;12.152;2022-07-23T03:06:45;10.95;;;7.93;;
24801;SDS011;12898;50.520;12.152;2022-07-23T03:09:10;11.85;;;8.73;;
24801;SDS011;12898;50.520;12.152;2022-07-23T03:11:36;13.50;;;8.70;;
24801;SDS011;12898;50.520;12.152;2022-07-23T03:14:02;14.80;;;9.73;;
24801;SDS011;12898;50.520;12.152;2022-07-23T03:16:27;12.68;;;8.63;;
24801;SDS011;12898;50.520;12.152;2022-07-23T03:18:53;14.75;;;9.00;;
24801;SDS011;12898;50.520;12.152;2022-07-23T03:21:19;16.83;;;8.68;;
24801;SDS011;12898;50.520;12.152;2022-07-23T03:23:44;13.85;;;9.02;;
24801;SDS011;12898;50.520;12.152;2022-07-23T03:26:10;14.50;;;9.13;;
24801;SDS011;12898;50.520;12.152;2022-07-23T03:28:36;12.68;;;9.07;;
24801;SDS011;12898;50.520;12.152;2022-07-23T03:31:01;13.85;;;8.90;;
24801;SDS011;12898;50.520;12.152;2022-07-23T03:33:27;12.52;;;8.70;;
24801;SDS011;12898;50.520;12.152;2022-07-23T03:35:53;12.52;;;8.20;;
24801;SDS011;12898;50.520;12.152;2022-07-23T03:38:18;11.52;;;9.02;;
24801;SDS011;12898;50.520;12.152;2022-07-23T03:40:44;13.43;;;9.68;;
24801;SDS011;12898;50.520;12.152;2022-07-23T03:43:10;12.10;;;8.40;;
24801;SDS011;12898;50.520;12.152;2022-07-23T03:45:35;14.73;;;8.20;;
24801;SDS011;12898;50.520;12.152;2022-07-23T03:48:01;10.73;;;7.63;;
24801;SDS011;12898;50.520;12.152;2022-07-23T03:50:27;12.65;;;8.23;;
24801;SDS011;12898;50.520;12.152;2022-07-23T03:52:52;10.95;;;8.00;;
24801;SDS011;12898;50.520;12.152;2022-07-23T03:55:19;13.30;;;8.43;;
24801;SDS011;12898;50.520;12.152;2022-07-23T03:57:44;13.52;;;8.65;;
24801;SDS011;12898;50.520;12.152;2022-07-23T04:00:10;14.43;;;8.48;;
24801;SDS011;12898;50.520;12.152;2022-07-23T04:02:37;12.73;;;8.70;;
24801;SDS011;12898;50.520;12.152;2022-07-23T04:05:04;13.40;;;8.57;;
24801;SDS011;12898;50.520;12.152;2022-07-23T04:07:31;11.93;;;8.20;;
24801;SDS011;12898;50.520;12.152;2022-07-23T04:09:56;12.77;;;9.15;;
24801;SDS011;12898;50.520;12.152;2022-07-23T04:12:22;12.82;;;9.25;;
24801;SDS011;12898;50.520;12.152;2022-07-23T04:14:48;15.52;;;9.80;;
24801;SDS011;12898;50.520;12.152;2022-07-23T04:17:14;14.15;;;10.27;;
24801;SDS011;12898;50.520;12.152;2022-07-23T04:19:39;15.63;;;10.23;;
24801;SDS011;12898;50.520;12.152;2022-07-23T04:22:10;14.13;;;9.55;;
24801;SDS011;12898;50.520;12.152;2022-07-23T04:24:37;15.60;;;10.30;;
24801;SDS011;12898;50.520;12.152;2022-07-23T04:27:03;15.20;;;10.02;;
24801;SDS011;12898;50.520;12.152;2022-07-23T04:29:29;15.63;;;9.68;;
24801;SDS011;12898;50.520;12.152;2022-07-23T04:31:55;15.38;;;9.70;;
24801;SDS011;12898;50.520;12.152;2022-07-23T04:34:20;14.23;;;10.05;;
24801;SDS011;12898;50.520;12.152;2022-07-23T04:36:46;15.90;;;9.80;;
24801;SDS011;12898;50.520;12.152;2022-07-23T04:39:12;16.58;;;9.30;;
24801;SDS011;12898;50.520;12.152;2022-07-23T04:41:37;14.80;;;9.82;;
24801;SDS011;12898;50.520;12.152;2022-07-23T04:44:03;15.23;;;9.07;;
24801;SDS011;12898;50.520;12.152;2022-07-23T04:46:29;14.55;;;9.15;;
24801;SDS011;12898;50.520;12.152;2022-07-23T04:48:54;15.50;;;9.15;;
24801;SDS011;12898;50.520;12.152;2022-07-23T04:51:20;15.48;;;9.15;;
24801;SDS011;12898;50.520;12.152;2022-07-23T04:53:46;13.75;;;9.60;;
24801;SDS011;12898;50.520;12.152;2022-07-23T04:56:11;17.02;;;9.07;;
24801;SDS011;12898;50.520;12.152;2022-07-23T04:58:37;13.57;;;9.32;;
24801;SDS011;12898;50.520;12.152;2022-07-23T05:01:03;14.07;;;8.80;;
24801;SDS011;12898;50.520;12.152;2022-07-23T05:03:29;14.40;;;9.82;;
24801;SDS011;12898;50.520;12.152;2022-07-23T05:05:55;16.52;;;9.38;;
24801;SDS011;12898;50.520;12.152;2022-07-23T05:08:20;14.10;;;9.13;;
24801;SDS011;12898;50.520;12.152;2022-07-23T05:10:46;14.85;;;9.18;;
24801;SDS011;12898;50.520;12.152;2022-07-23T05:13:13;14.27;;;8.63;;
24801;SDS011;12898;50.520;12.152;2022-07-23T05:15:40;12.93;;;9.10;;
24801;SDS011;12898;50.520;12.152;2022-07-23T05:18:05;12.88;;;8.57;;
24801;SDS011;12898;50.520;12.152;2022-07-23T05:20:31;12.50;;;7.85;;
24801;SDS011;12898;50.520;12.152;2022-07-23T05:22:56;13.75;;;8.77;;
24801;SDS011;12898;50.520;12.152;2022-07-23T05:25:22;17.85;;;9.25;;
24801;SDS011;12898;50.520;12.152;2022-07-23T05:27:47;14.43;;;8.48;;
24801;SDS011;12898;50.520;12.152;2022-07-23T05:30:13;15.85;;;9.32;;
24801;SDS011;12898;50.520;12.152;2022-07-23T05:32:39;13.45;;;8.45;;
24801;SDS011;12898;50.520;12.152;2022-07-23T05:35:05;14.60;;;9.20;;
24801;SDS011;12898;50.520;12.152;2022-07-23T05:37:31;13.80;;;9.02;;
24801;SDS011;12898;50.520;12.152;2022-07-23T05:39:59;13.63;;;9.07;;
24801;SDS011;12898;50.520;12.152;2022-07-23T05:42:31;12.48;;;8.88;;
24801;SDS011;12898;50.520;12.152;2022-07-23T05:44:56;13.52;;;9.57;;
24801;SDS011;12898;50.520;12.152;2022-07-23T05:47:22;15.90;;;10.50;;
24801;SDS011;12898;50.520;12.152;2022-07-23T05:49:48;16.50;;;9.93;;
24801;SDS011;12898;50.520;12.152;2022-07-23T05:52:14;14.05;;;9.48;;
24801;SDS011;12898;50.520;12.152;2022-07-23T05:54:39;13.40;;;9.38;;
24801;SDS011;12898;50.520;12.152;2022-07-23T05:57:05;14.35;;;9.85;;
24801;SDS011;12898;50.520;12.152;2022-07-23T05:59:31;12.90;;;9.60;;
24801;SDS011;12898;50.520;12.152;2022-07-23T06:01:56;13.15;;;9.55;;
24801;SDS011;12898;50.520;12.152;2022-07-23T06:04:22;13.60;;;9.05;;
24801;SDS011;12898;50.520;12.152;2022-07-23T06:06:47;13.90;;;9.45;;
24801;SDS011;12898;50.520;12.152;2022-07-23T06:09:13;13.43;;;9.77;;
24801;SDS011;12898;50.520;12.152;2022-07-23T06:11:39;15.63;;;10.10;;
24801;SDS011;12898;50.520;12.152;2022-07-23T06:14:05;16.27;;;9.82;;
24801;SDS011;12898;50.520;12.152;2022-07-23T06:16:31;16.27;;;10.25;;
24801;SDS011;12898;50.520;12.152;2022-07-23T06:18:57;13.30;;;9.85;;
24801;SDS011;12898;50.520;12.152;2022-07-23T06:21:22;16.17;;;10.10;;
24801;SDS011;12898;50.520;12.152;2022-07-23T06:23:48;16.25;;;10.23;;
24801;SDS011;12898;50.520;12.152;2022-07-23T06:26:13;13.65;;;10.02;;
24801;SDS011;12898;50.520;12.152;2022-07-23T06:28:39;12.63;;;9.45;;
24801;SDS011;12898;50.520;12.152;2022-07-23T06:31:04;15.23;;;9.98;;
24801;SDS011;12898;50.520;12.152;2022-07-23T06:33:30;13.57;;;9.85;;
24801;SDS011;12898;50.520;12.152;2022-07-23T06:35:55;14.57;;;9.95;;
24801;SDS011;12898;50.520;12.152;2022-07-23T06:38:21;14.65;;;9.10;;
24801;SDS011;12898;50.520;12.152;2022-07-23T06:40:46;13.13;;;8.68;;
24801;SDS011;12898;50.520;12.152;2022-07-23T06:43:12;13.90;;;8.90;;
24801;SDS011;12898;50.520;12.152;2022-07-23T06:45:38;14.55;;;9.25;;
24801;SDS011;12898;50.520;12.152;2022-07-23T06:48:04;13.90;;;9.63;;
24801;SDS011;12898;50.520;12.152;2022-07-23T06:50:29;14.32;;;8.48;;
24801;SDS011;12898;50.520;12.152;2022-07-23T06:52:55;14.23;;;8.15;;
24801;SDS011;12898;50.520;12.152;2022-07-23T06:55:21;15.38;;;8.23;;
24801;SDS011;12898;50.520;12.152;2022-07-23T06:57:46;14.65;;;8.88;;
24801;SDS011;12898;50.520;12.152;2022-07-23T07:00:12;13.30;;;8.95;;
24801;SDS011;12898;50.520;12.152;2022-07-23T07:02:38;12.77;;;8.75;;
24801;SDS011;12898;50.520;12.152;2022-07-23T07:05:04;14.23;;;8.82;;
24801;SDS011;12898;50.520;12.152;2022-07-23T07:07:30;15.05;;;9.43;;
24801;SDS011;12898;50.520;12.152;2022-07-23T07:09:56;15.02;;;9.80;;
24801;SDS011;12898;50.520;12.152;2022-07-23T07:12:21;14.55;;;9.45;;
24801;SDS011;12898;50.520;12.152;2022-07-23T07:14:47;13.77;;;8.98;;
24801;SDS011;12898;50.520;12.152;2022-07-23T07:17:13;15.27;;;9.23;;
24801;SDS011;12898;50.520;12.152;2022-07-23T07:19:40;13.73;;;8.73;;
24801;SDS011;12898;50.520;12.152;2022-07-23T07:22:06;14.85;;;10.10;;
24801;SDS011;12898;50.520;12.152;2022-07-23T07:24:31;12.52;;;9.07;;
24801;SDS011;12898;50.520;12.152;2022-07-23T07:26:57;14.07;;;8.63;;
24801;SDS011;12898;50.520;12.152;2022-07-23T07:29:23;16.90;;;9.65;;
24801;SDS011;12898;50.520;12.152;2022-07-23T07:31:48;15.77;;;9.68;;
24801;SDS011;12898;50.520;12.152;2022-07-23T07:34:14;13.43;;;8.70;;
24801;SDS011;12898;50.520;12.152;2022-07-23T07:36:40;13.20;;;9.60;;
24801;SDS011;12898;50.520;12.152;2022-07-23T07:39:05;13.85;;;9.73;;
24801;SDS011;12898;50.520;12.152;2022-07-23T07:41:31;13.57;;;9.75;;
24801;SDS011;12898;50.520;12.152;2022-07-23T07:43:57;13.60;;;9.60;;
24801;SDS011;12898;50.520;12.152;2022-07-23T07:46:23;16.83;;;9.98;;
24801;SDS011;12898;50.520;12.152;2022-07-23T07:48:49;14.55;;;9.65;;
24801;SDS011;12898;50.520;12.152;2022-07-23T07:51:15;14.35;;;9.32;;
24801;SDS011;12898;50.520;12.152;2022-07-23T07:53:41;14.57;;;9.90;;
24801;SDS011;12898;50.520;12.152;2022-07-23T07:56:07;14.38;;;9.77;;
24801;SDS011;12898;50.520;12.152;2022-07-23T07:58:32;14.48;;;9.25;;
24801;SDS011;12898;50.520;12.152;2022-07-23T08:00:58;17.02;;;10.75;;
24801;SDS011;12898;50.520;12.152;2022-07-23T08:03:25;14.05;;;10.00;;
24801;SDS011;12898;50.520;12.152;2022-07-23T08:05:51;13.45;;;9.00;;
24801;SDS011;12898;50.520;12.152;2022-07-23T08:08:17;14.23;;;9.50;;
24801;SDS011;12898;50.520;12.152;2022-07-23T08:10:42;15.23;;;9.10;;
24801;SDS011;12898;50.520;12.152;2022-07-23T08:13:11;13.73;;;9.10;;
24801;SDS011;12898;50.520;12.152;2022-07-23T08:15:41;13.77;;;9.10;;
24801;SDS011;12898;50.520;12.152;2022-07-23T08:18:08;13.98;;;9.77;;
24801;SDS011;12898;50.520;12.152;2022-07-23T08:20:34;15.02;;;9.07;;
24801;SDS011;12898;50.520;12.152;2022-07-23T08:23:02;13.90;;;8.88;;
24801;SDS011;12898;50.520;12.152;2022-07-23T08:25:34;16.08;;;9.38;;
24801;SDS011;12898;50.520;12.152;2022-07-23T08:28:04;12.98;;;9.18;;
24801;SDS011;12898;50.520;12.152;2022-07-23T08:30:32;14.60;;;8.48;;
24801;SDS011;12898;50.520;12.152;2022-07-23T08:35:39;13.77;;;9.13;;
24801;SDS011;12898;50.520;12.152;2022-07-23T08:38:11;14.60;;;9.18;;
24801;SDS011;12898;50.520;12.152;2022-07-23T08:40:43;13.68;;;9.13;;
24801;SDS011;12898;50.520;12.152;2022-07-23T08:43:12;13.70;;;9.90;;
24801;SDS011;12898;50.520;12.152;2022-07-23T08:45:41;13.07;;;9.38;;
24801;SDS011;12898;50.520;12.152;2022-07-23T08:48:14;12.70;;;9.40;;
24801;SDS011;12898;50.520;12.152;2022-07-23T08:50:51;14.63;;;9.63;;
24801;SDS011;12898;50.520;12.152;2022-07-23T08:53:20;14.05;;;10.05;;
24801;SDS011;12898;50.520;12.152;2022-07-23T08:55:49;15.52;;;9.95;;
24801;SDS011;12898;50.520;12.152;2022-07-23T08:58:17;12.38;;;8.93;;
24801;SDS011;12898;50.520;12.152;2022-07-23T09:00:44;14.98;;;8.70;;
24801;SDS011;12898;50.520;12.152;2022-07-23T09:03:21;12.35;;;8.68;;
24801;SDS011;12898;50.520;12.152;2022-07-23T09:05:53;14.10;;;8.93;;
24801;SDS011;12898;50.520;12.152;2022-07-23T09:08:23;15.07;;;9.18;;
24801;SDS011;12898;50.520;12.152;2022-07-23T09:11:09;14.07;;;8.93;;
24801;SDS011;12898;50.520;12.152;2022-07-23T09:21:34;11.65;;;8.60;;
24801;SDS011;12898;50.520;12.152;2022-07-23T09:26:36;14.38;;;8.60;;
24801;SDS011;12898;50.520;12.152;2022-07-23T09:34:30;14.20;;;8.80;;
24801;SDS011;12898;50.520;12.152;2022-07-23T09:36:58;13.50;;;9.38;;
24801;SDS011;12898;50.520;12.152;2022-07-23T09:39:38;12.15;;;9.20;;
24801;SDS011;12898;50.520;12.152;2022-07-23T09:42:17;14.52;;;9.02;;
24801;SDS011;12898;50.520;12.152;2022-07-23T09:44:44;12.57;;;8.80;;
24801;SDS011;12898;50.520;12.152;2022-07-23T09:47:12;11.18;;;8.57;;
24801;SDS011;12898;50.520;12.152;2022-07-23T09:49:38;13.73;;;7.88;;
24801;SDS011;12898;50.520;12.152;2022-07-23T09:52:04;12.02;;;8.00;;
24801;SDS011;12898;50.520;12.152;2022-07-23T09:54:37;10.18;;;8.25;;
24801;SDS011;12898;50.520;12.152;2022-07-23T09:57:06;13.23;;;8.20;;
24801;SDS011;12898;50.520;12.152;2022-07-23T09:59:42;17.48;;;8.70;;
24801;SDS011;12898;50.520;12.152;2022-07-23T10:02:11;13.10;;;8.68;;
24801;SDS011;12898;50.520;12.152;2022-07-23T10:04:37;12.02;;;8.00;;
24801;SDS011;12898;50.520;12.152;2022-07-23T10:07:05;12.68;;;8.40;;
24801;SDS011;12898;50.520;12.152;2022-07-23T10:09:35;11.88;;;8.13;;
24801;SDS011;12898;50.520;12.152;2022-07-23T10:12:06;13.40;;;8.73;;
24801;SDS011;12898;50.520;12.152;2022-07-23T10:14:59;15.88;;;8.00;;
24801;SDS011;12898;50.520;12.152;2022-07-23T10:17:25;11.88;;;8.30;;
24801;SDS011;12898;50.520;12.152;2022-07-23T10:19:54;10.25;;;7.80;;
24801;SDS011;12898;50.520;12.152;2022-07-23T10:22:24;13.75;;;8.73;;
24801;SDS011;12898;50.520;12.152;2022-07-23T10:25:40;10.32;;;8.50;;
24801;SDS011;12898;50.520;12.152;2022-07-23T10:36:32;11.02;;;7.50;;
24801;SDS011;12898;50.520;12.152;2022-07-23T10:39:24;13.20;;;7.85;;
24801;SDS011;12898;50.520;12.152;2022-07-23T10:42:12;10.45;;;7.65;;
24801;SDS011;12898;50.520;12.152;2022-07-23T10:44:44;12.10;;;8.45;;
24801;SDS011;12898;50.520;12.152;2022-07-23T10:47:12;12.20;;;8.40;;
24801;SDS011;12898;50.520;12.152;2022-07-23T10:57:59;12.13;;;8.15;;
24801;SDS011;12898;50.520;12.152;2022-07-23T11:00:31;12.80;;;7.93;;
24801;SDS011;12898;50.520;12.152;2022-07-23T11:03:00;9.88;;;7.93;;
24801;SDS011;12898;50.520;12.152;2022-07-23T11:05:44;8.80;;;7.10;;
24801;SDS011;12898;50.520;12.152;2022-07-23T11:08:12;11.13;;;7.47;;
24801;SDS011;12898;50.520;12.152;2022-07-23T11:10:52;10.98;;;7.55;;
24801;SDS011;12898;50.520;12.152;2022-07-23T11:13:39;11.65;;;7.45;;
24801;SDS011;12898;50.520;12.152;2022-07-23T11:16:14;9.25;;;6.78;;
24801;SDS011;12898;50.520;12.152;2022-07-23T11:34:57;9.82;;;7.35;;
24801;SDS011;12898;50.520;12.152;2022-07-23T11:37:27;10.15;;;7.38;;
24801;SDS011;12898;50.520;12.152;2022-07-23T11:40:06;11.57;;;7.95;;
24801;SDS011;12898;50.520;12.152;2022-07-23T11:42:59;12.52;;;7.72;;
24801;SDS011;12898;50.520;12.152;2022-07-23T11:45:33;9.88;;;7.47;;
24801;SDS011;12898;50.520;12.152;2022-07-23T11:48:16;23.95;;;8.35;;
24801;SDS011;12898;50.520;12.152;2022-07-23T11:50:48;14.55;;;7.85;;
24801;SDS011;12898;50.520;12.152;2022-07-23T11:53:21;10.18;;;7.80;;
24801;SDS011;12898;50.520;12.152;2022-07-23T11:55:51;10.20;;;7.28;;
24801;SDS011;12898;50.520;12.152;2022-07-23T11:58:17;11.52;;;7.43;;
24801;SDS011;12898;50.520;12.152;2022-07-23T12:00:43;11.20;;;7.72;;
24801;SDS011;12898;50.520;12.152;2022-07-23T12:03:09;12.13;;;7.70;;
24801;SDS011;12898;50.520;12.152;2022-07-23T12:05:35;11.63;;;7.53;;
24801;SDS011;12898;50.520;12.152;2022-07-23T12:08:03;10.50;;;7.88;;
24801;SDS011;12898;50.520;12.152;2022-07-23T12:13:08;12.02;;;7.72;;
24801;SDS011;12898;50.520;12.152;2022-07-23T12:15:45;10.93;;;7.82;;
24801;SDS011;12898;50.520;12.152;2022-07-23T12:18:17;10.10;;;6.97;;
24801;SDS011;12898;50.520;12.152;2022-07-23T12:20:53;10.20;;;6.93;;
24801;SDS011;12898;50.520;12.152;2022-07-23T12:23:26;9.85;;;6.53;;
24801;SDS011;12898;50.520;12.152;2022-07-23T12:25:52;9.95;;;6.65;;
24801;SDS011;12898;50.520;12.152;2022-07-23T12:28:22;10.90;;;6.70;;
24801;SDS011;12898;50.520;12.152;2022-07-23T12:30:56;14.98;;;7.18;;
24801;SDS011;12898;50.520;12.152;2022-07-23T12:33:26;11.25;;;7.18;;
24801;SDS011;12898;50.520;12.152;2022-07-23T12:35:55;9.88;;;6.88;;
24801;SDS011;12898;50.520;12.152;2022-07-23T12:38:24;10.50;;;6.60;;
24801;SDS011;12898;50.520;12.152;2022-07-23T12:45:52;12.40;;;7.45;;
24801;SDS011;12898;50.520;12.152;2022-07-23T12:48:29;8.13;;;6.80;;
24801;SDS011;12898;50.520;12.152;2022-07-23T12:51:03;10.70;;;6.55;;
24801;SDS011;12898;50.520;12.152;2022-07-23T12:54:31;13.32;;;7.70;;
24801;SDS011;12898;50.520;12.152;2022-07-23T12:56:32;11.80;;;7.55;;
24801;SDS011;12898;50.520;12.152;2022-07-23T13:01:33;10.98;;;8.25;;
24801;SDS011;12898;50.520;12.152;2022-07-23T13:04:24;11.82;;;7.70;;
24801;SDS011;12898;50.520;12.152;2022-07-23T13:09:27;10.93;;;7.55;;
24801;SDS011;12898;50.520;12.152;2022-07-23T13:11:55;9.82;;;7.40;;
24801;SDS011;12898;50.520;12.152;2022-07-23T13:14:22;12.30;;;7.75;;
24801;SDS011;12898;50.520;12.152;2022-07-23T13:16:50;11.20;;;7.13;;
24801;SDS011;12898;50.520;12.152;2022-07-23T13:19:17;12.60;;;7.72;;
24801;SDS011;12898;50.520;12.152;2022-07-23T13:21:47;9.50;;;7.95;;
24801;SDS011;12898;50.520;12.152;2022-07-23T13:24:14;11.65;;;8.43;;
24801;SDS011;12898;50.520;12.152;2022-07-23T13:26:40;15.80;;;8.32;;
24801;SDS011;12898;50.520;12.152;2022-07-23T13:29:06;11.32;;;7.70;;
24801;SDS011;12898;50.520;12.152;2022-07-23T13:31:32;10.25;;;8.00;;
24801;SDS011;12898;50.520;12.152;2022-07-23T13:33:58;13.68;;;8.98;;
24801;SDS011;12898;50.520;12.152;2022-07-23T13:36:24;12.20;;;8.45;;
24801;SDS011;12898;50.520;12.152;2022-07-23T13:38:50;13.63;;;8.38;;
24801;SDS011;12898;50.520;12.152;2022-07-23T13:41:16;11.85;;;8.43;;
24801;SDS011;12898;50.520;12.152;2022-07-23T13:43:43;12.88;;;9.00;;
24801;SDS011;12898;50.520;12.152;2022-07-23T13:46:09;10.80;;;7.43;;
24801;SDS011;12898;50.520;12.152;2022-07-23T13:48:34;12.18;;;8.43;;
24801;SDS011;12898;50.520;12.152;2022-07-23T13:51:00;12.60;;;8.15;;
24801;SDS011;12898;50.520;12.152;2022-07-23T13:53:26;12.38;;;7.57;;
24801;SDS011;12898;50.520;12.152;2022-07-23T13:55:53;11.07;;;7.72;;
24801;SDS011;12898;50.520;12.152;2022-07-23T13:58:19;13.23;;;8.43;;
24801;SDS011;12898;50.520;12.152;2022-07-23T14:00:47;11.45;;;8.50;;
24801;SDS011;12898;50.520;12.152;2022-07-23T14:03:17;12.98;;;7.95;;
24801;SDS011;12898;50.520;12.152;2022-07-23T14:05:44;11.13;;;8.25;;
24801;SDS011;12898;50.520;12.152;2022-07-23T14:08:10;13.18;;;8.55;;
24801;SDS011;12898;50.520;12.152;2022-07-23T14:10:36;11.95;;;8.70;;
24801;SDS011;12898;50.520;12.152;2022-07-23T14:13:02;11.30;;;7.97;;
24801;SDS011;12898;50.520;12.152;2022-07-23T14:15:29;11.38;;;8.35;;
24801;SDS011;12898;50.520;12.152;2022-07-23T14:17:56;11.15;;;8.02;;
24801;SDS011;12898;50.520;12.152;2022-07-23T14:20:22;15.93;;;9.05;;
24801;SDS011;12898;50.520;12.152;2022-07-23T14:22:48;11.23;;;8.40;;
24801;SDS011;12898;50.520;12.152;2022-07-23T14:25:15;14.00;;;9.40;;
24801;SDS011;12898;50.520;12.152;2022-07-23T14:27:42;15.93;;;8.00;;
24801;SDS011;12898;50.520;12.152;2022-07-23T14:30:08;11.43;;;8.40;;
24801;SDS011;12898;50.520;12.152;2022-07-23T14:32:36;11.73;;;8.45;;
24801;SDS011;12898;50.520;12.152;2022-07-23T14:35:02;15.98;;;9.38;;
24801;SDS011;12898;50.520;12.152;2022-07-23T14:37:29;11.85;;;8.15;;
24801;SDS011;12898;50.520;12.152;2022-07-23T14:39:55;15.45;;;9.57;;
24801;SDS011;12898;50.520;12.152;2022-07-23T14:42:21;14.85;;;10.13;;
24801;SDS011;12898;50.520;12.152;2022-07-23T14:44:50;14.32;;;9.93;;
24801;SDS011;12898;50.520;12.152;2022-07-23T14:47:15;12.20;;;9.07;;
24801;SDS011;12898;50.520;12.152;2022-07-23T14:49:41;14.52;;;8.77;;
24801;SDS011;12898;50.520;12.152;2022-07-23T14:52:08;15.70;;;9.07;;
24801;SDS011;12898;50.520;12.152;2022-07-23T14:54:33;15.13;;;10.07;;
24801;SDS011;12898;50.520;12.152;2022-07-23T14:57:00;17.25;;;11.63;;
24801;SDS011;12898;50.520;12.152;2022-07-23T14:59:27;14.10;;;11.73;;
24801;SDS011;12898;50.520;12.152;2022-07-23T15:01:55;14.38;;;11.88;;
24801;SDS011;12898;50.520;12.152;2022-07-23T15:04:21;15.32;;;10.90;;
24801;SDS011;12898;50.520;12.152;2022-07-23T15:06:47;14.00;;;10.90;;
24801;SDS011;12898;50.520;12.152;2022-07-23T15:09:13;13.90;;;11.27;;
24801;SDS011;12898;50.520;12.152;2022-07-23T15:11:39;14.30;;;10.75;;
24801;SDS011;12898;50.520;12.152;2022-07-23T15:14:05;12.23;;;10.52;;
24801;SDS011;12898;50.520;12.152;2022-07-23T15:16:31;14.23;;;10.68;;
24801;SDS011;12898;50.520;12.152;2022-07-23T15:18:57;16.60;;;13.38;;
24801;SDS011;12898;50.520;12.152;2022-07-23T15:21:23;13.95;;;10.98;;
24801;SDS011;12898;50.520;12.152;2022-07-23T15:23:49;12.43;;;10.25;;
24801;SDS011;12898;50.520;12.152;2022-07-23T15:26:15;11.73;;;9.75;;
24801;SDS011;12898;50.520;12.152;2022-07-23T15:28:43;12.13;;;10.10;;